Time;durP1;ratioP1;P1;durP2;ratioP2;P2;SDS_P1;SDS_P2;PMS_P1;PMS_P2;Temp;Humidity;BMP_temperature;BMP_pressure;BME280_temperature;BME280_humidity;BME280_pressure;Samples;Min_cycle;Max_cycle;Signal;HPM_P1;HPM_P2
2022/08/21 00:01:23;;;;;;;21.58;8.82;;;;;;;16.52;100.00;100734.97;8287386;28;20088;-48
2022/08/21 00:05:25;;;;;;;14.27;7.87;;;;;;;16.22;100.00;100738.41;8287601;28;20034;-48
2022/08/21 00:09:26;;;;;;;12.18;8.30;;;;;;;16.05;100.00;100732.09;8288290;28;20553;-47
2022/08/21 00:13:26;;;;;;;19.98;9.98;;;;;;;16.08;100.00;100728.16;8288193;28;20450;-47
2022/08/21 00:17:27;;;;;;;17.27;10.52;;;;;;;16.30;100.00;100732.91;8288024;28;20034;-48
2022/08/21 00:21:27;;;;;;;20.10;9.65;;;;;;;16.32;100.00;100722.69;8287791;28;20041;-48
2022/08/21 00:25:28;;;;;;;18.83;9.63;;;;;;;15.99;100.00;100723.72;8286433;28;20088;-49
2022/08/21 00:29:28;;;;;;;15.50;9.90;;;;;;;15.66;100.00;100720.13;8287518;28;20045;-49
2022/08/21 00:33:29;;;;;;;19.77;11.35;;;;;;;15.79;100.00;100719.66;8286538;28;20335;-53
2022/08/21 00:37:30;;;;;;;19.08;10.45;;;;;;;15.80;100.00;100710.44;8287656;28;20026;-52
2022/08/21 00:41:30;;;;;;;20.17;10.77;;;;;;;15.87;100.00;100716.91;8293511;28;20510;-52
2022/08/21 00:45:31;;;;;;;20.38;9.90;;;;;;;16.00;100.00;100718.09;8293657;28;20402;-53
2022/08/21 00:49:32;;;;;;;22.85;10.50;;;;;;;15.90;100.00;100711.97;8290725;28;20037;-53
2022/08/21 00:53:34;;;;;;;17.58;9.82;;;;;;;16.04;100.00;100707.72;8292626;28;20044;-49
2022/08/21 00:57:41;;;;;;;16.17;9.60;;;;;;;15.97;100.00;100712.13;8291726;28;20133;-52
2022/08/21 01:01:41;;;;;;;16.00;9.32;;;;;;;15.83;100.00;100704.66;8292774;28;20041;-51
2022/08/21 01:05:42;;;;;;;17.58;9.55;;;;;;;15.85;100.00;100706.16;8291375;28;20041;-52
2022/08/21 01:09:45;;;;;;;21.15;9.60;;;;;;;15.82;100.00;100702.94;8292525;28;20034;-53
2022/08/21 01:13:47;;;;;;;17.45;9.70;;;;;;;15.66;100.00;100703.78;8292133;28;20410;-53
2022/08/21 01:17:48;;;;;;;14.25;9.45;;;;;;;15.53;100.00;100706.97;8292915;28;20095;-52
2022/08/21 01:21:49;;;;;;;19.00;9.30;;;;;;;15.19;100.00;100708.91;8291881;28;20099;-53
2022/08/21 01:25:49;;;;;;;21.08;10.15;;;;;;;15.09;100.00;100718.22;8292097;28;20109;-53
2022/08/21 01:29:56;;;;;;;16.30;11.02;;;;;;;14.97;100.00;100709.50;8291171;28;20038;-52
2022/08/21 01:33:56;;;;;;;13.20;9.70;;;;;;;14.93;100.00;100707.28;8290898;28;20383;-52
2022/08/21 01:37:57;;;;;;;20.10;9.65;;;;;;;14.95;100.00;100708.81;8291127;28;20068;-52
2022/08/21 01:41:57;;;;;;;20.52;10.23;;;;;;;14.92;100.00;100701.00;8284748;28;20053;-52
2022/08/21 01:45:58;;;;;;;16.58;10.70;;;;;;;14.96;100.00;100707.81;8314918;28;20038;-51
2022/08/21 01:49:59;;;;;;;15.45;10.07;;;;;;;14.89;100.00;100700.47;8291646;28;20129;-53
2022/08/21 01:53:59;;;;;;;18.50;9.70;;;;;;;14.94;100.00;100707.13;8290065;28;20065;-49
2022/08/21 01:58:00;;;;;;;13.80;8.88;;;;;;;14.85;100.00;100697.22;8293568;28;20119;-48
2022/08/21 02:02:01;;;;;;;15.02;8.07;;;;;;;14.78;100.00;100701.59;8309411;28;20042;-50
2022/08/21 02:06:03;;;;;;;20.27;8.35;;;;;;;14.68;100.00;100700.88;8287380;28;20453;-50
2022/08/21 02:10:05;;;;;;;14.65;8.50;;;;;;;14.66;100.00;100702.91;8289500;28;20562;-50
2022/08/21 02:14:08;;;;;;;15.07;8.27;;;;;;;14.62;100.00;100704.25;8290859;28;20169;-49
2022/08/21 02:18:08;;;;;;;15.45;8.73;;;;;;;14.58;100.00;100697.41;8290772;28;20030;-51
2022/08/21 02:22:10;;;;;;;18.85;8.35;;;;;;;14.58;100.00;100689.25;8290096;28;20057;-48
2022/08/21 02:26:11;;;;;;;15.15;8.18;;;;;;;14.48;100.00;100693.97;8290080;28;20033;-50
2022/08/21 02:30:16;;;;;;;11.63;7.82;;;;;;;14.44;100.00;100692.59;8289865;28;20034;-47
2022/08/21 02:34:16;;;;;;;18.70;9.02;;;;;;;14.41;100.00;100690.19;8298167;28;20038;-50
2022/08/21 02:38:21;;;;;;;13.93;7.90;;;;;;;14.46;100.00;100684.25;8289809;28;20091;-49
2022/08/21 02:42:21;;;;;;;13.55;8.30;;;;;;;14.44;100.00;100692.59;8287906;28;20284;-48
2022/08/21 02:46:22;;;;;;;15.90;8.02;;;;;;;14.42;100.00;100699.22;8288168;28;20101;-47
2022/08/21 02:50:26;;;;;;;16.00;8.57;;;;;;;14.39;100.00;100686.75;8285619;28;20056;-49
2022/08/21 02:54:26;;;;;;;14.57;7.60;;;;;;;14.39;100.00;100694.09;8289871;28;20096;-53
2022/08/21 02:58:31;;;;;;;14.73;8.40;;;;;;;14.18;100.00;100691.69;8289142;28;20777;-53
2022/08/21 03:02:31;;;;;;;;;;;;;;;14.24;100.00;100693.81;8289962;28;20037;-50
2022/08/21 03:06:32;;;;;;;16.45;8.80;;;;;;;14.27;100.00;100696.19;8289478;28;19920;-52
2022/08/21 03:10:33;;;;;;;16.88;7.35;;;;;;;14.18;100.00;100694.41;8289382;28;20038;-51
2022/08/21 03:14:33;;;;;;;16.83;8.32;;;;;;;14.17;100.00;100684.53;8288989;28;20041;-52
2022/08/21 03:18:35;;;;;;;13.73;7.43;;;;;;;14.16;100.00;100677.41;8288276;28;20133;-53
2022/08/21 03:22:35;;;;;;;14.23;7.78;;;;;;;14.19;100.00;100682.53;8280374;28;20052;-50
2022/08/21 03:26:36;;;;;;;13.77;7.90;;;;;;;14.02;100.00;100679.84;8289083;28;20041;-51
2022/08/21 03:30:36;;;;;;;14.60;7.90;;;;;;;14.09;100.00;100676.31;8286776;28;20104;-54
2022/08/21 03:34:38;;;;;;;12.18;8.02;;;;;;;13.99;100.00;100681.00;8287698;28;20049;-53
2022/08/21 03:38:38;;;;;;;16.92;9.40;;;;;;;13.84;100.00;100678.03;8287296;28;20057;-51
2022/08/21 03:42:39;;;;;;;13.68;8.65;;;;;;;13.82;100.00;100684.63;8289147;28;20069;-52
2022/08/21 03:46:39;;;;;;;19.05;9.50;;;;;;;13.77;100.00;100684.25;8288539;28;20057;-52
2022/08/21 03:50:42;;;;;;;21.00;9.70;;;;;;;13.71;100.00;100682.16;8295059;28;20049;-52
2022/08/21 03:54:44;;;;;;;17.55;9.40;;;;;;;13.72;100.00;100678.41;8288503;28;20054;-53
2022/08/21 03:58:44;;;;;;;21.80;9.13;;;;;;;14.01;100.00;100695.31;8287846;28;20453;-51
2022/08/21 04:02:46;;;;;;;16.00;7.60;;;;;;;13.96;100.00;100697.63;8288229;28;20041;-53
2022/08/21 04:06:47;;;;;;;15.10;8.52;;;;;;;14.07;100.00;100705.56;8287864;28;20117;-51
2022/08/21 04:10:50;;;;;;;13.85;8.20;;;;;;;13.78;100.00;100700.38;8286442;28;20041;-50
2022/08/21 04:14:51;;;;;;;17.83;9.07;;;;;;;13.78;100.00;100704.97;8295085;28;20682;-53
2022/08/21 04:18:51;;;;;;;14.05;9.50;;;;;;;13.51;100.00;100708.63;8296742;28;20403;-51
2022/08/21 04:22:52;;;;;;;14.23;9.20;;;;;;;13.50;100.00;100706.06;8294205;28;20092;-52
2022/08/21 04:26:52;;;;;;;16.88;8.70;;;;;;;13.52;100.00;100704.03;8295228;28;20311;-53
2022/08/21 04:30:53;;;;;;;14.35;8.75;;;;;;;13.46;100.00;100710.97;8296261;28;20033;-52
2022/08/21 04:35:04;;;;;;;16.95;9.15;;;;;;;13.62;100.00;100715.69;8296566;28;20084;-50
2022/08/21 04:39:04;;;;;;;15.10;9.07;;;;;;;13.55;100.00;100715.44;8295948;28;20434;-48
2022/08/21 04:43:11;;;;;;;16.27;8.52;;;;;;;13.24;100.00;100721.41;8295240;28;20088;-49
2022/08/21 04:47:11;;;;;;;13.15;9.35;;;;;;;13.21;100.00;100727.13;8291752;28;20498;-49
2022/08/21 04:51:17;;;;;;;21.90;10.23;;;;;;;13.23;100.00;100730.53;8293785;28;20041;-51
2022/08/21 04:55:18;;;;;;;15.75;9.80;;;;;;;13.28;100.00;100733.66;8286927;28;20103;-48
2022/08/21 04:59:24;;;;;;;14.50;9.00;;;;;;;13.32;100.00;100729.63;8287029;28;20042;-51
2022/08/21 05:03:24;;;;;;;17.40;9.98;;;;;;;13.64;100.00;100727.25;8293721;28;20032;-50
2022/08/21 05:07:28;;;;;;;17.35;9.00;;;;;;;13.84;100.00;100718.78;8293101;28;20061;-49
2022/08/21 05:11:30;;;;;;;11.95;8.70;;;;;;;14.09;100.00;100719.81;8291681;28;20034;-52
2022/08/21 05:15:31;;;;;;;20.73;9.15;;;;;;;14.29;100.00;100729.53;8292256;28;20116;-50
2022/08/21 05:19:32;;;;;;;16.23;9.13;;;;;;;14.43;100.00;100711.78;8291988;28;20030;-49
2022/08/21 05:23:32;;;;;;;16.75;8.82;;;;;;;14.63;100.00;100719.56;8292326;28;20079;-49
2022/08/21 05:27:33;;;;;;;14.85;8.55;;;;;;;14.76;100.00;100714.53;8292228;28;20426;-52
2022/08/21 05:31:33;;;;;;;9.98;8.38;;;;;;;14.93;100.00;100719.03;8292417;28;20046;-51
2022/08/21 05:35:34;;;;;;;17.48;8.60;;;;;;;15.10;100.00;100723.50;8288819;28;20663;-52
2022/08/21 05:39:34;;;;;;;14.95;8.32;;;;;;;15.40;100.00;100731.13;8290254;28;20455;-53
2022/08/21 05:43:36;;;;;;;12.93;7.85;;;;;;;15.70;100.00;100732.41;8290446;28;20068;-50
2022/08/21 05:47:36;;;;;;;14.82;7.05;;;;;;;15.96;100.00;100732.25;8292812;28;20045;-48
2022/08/21 05:51:39;;;;;;;14.90;7.20;;;;;;;16.09;99.63;100738.91;8291253;28;20041;-49
2022/08/21 05:55:41;;;;;;;16.08;8.52;;;;;;;16.26;99.54;100735.16;8290423;28;20057;-49
2022/08/21 05:59:41;;;;;;;12.18;7.45;;;;;;;16.57;98.78;100738.91;8291234;28;20045;-52
2022/08/21 06:03:42;;;;;;;9.88;6.30;;;;;;;16.82;95.20;100740.53;8288280;28;20557;-53
2022/08/21 06:07:43;;;;;;;14.55;7.88;;;;;;;16.82;93.82;100742.41;8286847;28;20072;-52
2022/08/21 06:11:43;;;;;;;9.48;6.55;;;;;;;17.12;94.18;100733.44;8291424;28;20038;-52
2022/08/21 06:15:44;;;;;;;12.05;6.82;;;;;;;17.25;92.84;100730.97;8289693;28;20042;-50
2022/08/21 06:19:45;;;;;;;12.40;6.47;;;;;;;17.63;91.04;100728.22;8289579;28;20129;-52
2022/08/21 06:23:45;;;;;;;17.15;6.75;;;;;;;17.88;90.27;100731.66;8290188;28;20034;-53
2022/08/21 06:27:46;;;;;;;8.38;6.05;;;;;;;18.21;87.43;100726.75;8289173;28;20042;-49
2022/08/21 06:31:49;;;;;;;11.35;5.93;;;;;;;18.38;85.90;100729.19;8291739;28;20045;-49
2022/08/21 06:35:49;;;;;;;12.50;5.97;;;;;;;18.57;84.99;100725.09;8289549;28;20038;-50
2022/08/21 06:39:50;;;;;;;12.38;5.47;;;;;;;18.82;84.45;100727.34;8290616;28;20056;-50
2022/08/21 06:43:50;;;;;;;7.57;5.10;;;;;;;18.84;83.10;100727.16;8290167;28;20529;-49
2022/08/21 06:47:51;;;;;;;11.10;4.78;;;;;;;19.48;82.10;100727.22;8291167;28;20060;-50
2022/08/21 06:51:51;;;;;;;9.32;4.55;;;;;;;19.91;78.83;100724.53;8288647;28;20046;-52
2022/08/21 06:55:52;;;;;;;8.93;5.03;;;;;;;19.63;80.24;100727.19;8289456;28;20045;-49
2022/08/21 06:59:53;;;;;;;11.07;4.70;;;;;;;20.05;79.36;100726.34;8288134;28;20041;-52
2022/08/21 07:03:53;;;;;;;11.10;4.13;;;;;;;20.59;76.94;100735.75;8282944;28;20034;-50
2022/08/21 07:07:53;;;;;;;7.43;3.70;;;;;;;20.35;77.37;100727.94;8283742;28;20048;-50
2022/08/21 07:11:56;;;;;;;9.55;4.18;;;;;;;20.43;78.50;100733.31;8286144;28;20045;-50
2022/08/21 07:15:56;;;;;;;9.15;3.28;;;;;;;21.11;75.59;100730.63;8286061;28;20033;-49
2022/08/21 07:19:57;;;;;;;9.80;3.60;;;;;;;21.43;74.38;100723.59;8287758;28;20061;-52
2022/08/21 07:23:58;;;;;;;7.00;2.90;;;;;;;21.52;73.99;100736.94;8287371;28;20045;-52
2022/08/21 07:27:59;;;;;;;8.77;3.23;;;;;;;21.16;75.16;100728.09;8287549;28;20030;-51
2022/08/21 07:31:59;;;;;;;5.13;2.83;;;;;;;21.63;74.15;100730.84;8286803;28;20323;-52
2022/08/21 07:36:00;;;;;;;6.72;2.53;;;;;;;22.00;72.23;100724.84;8286731;28;20583;-52
2022/08/21 07:40:00;;;;;;;5.68;2.63;;;;;;;22.18;71.85;100730.59;8310524;28;20048;-50
2022/08/21 07:44:01;;;;;;;14.45;2.60;;;;;;;22.29;71.52;100735.44;8282243;28;20087;-52
2022/08/21 07:48:01;;;;;;;8.65;2.47;;;;;;;22.66;70.27;100729.31;8285137;28;20038;-53
2022/08/21 07:52:02;;;;;;;8.20;2.45;;;;;;;22.55;70.30;100727.25;8287176;28;20104;-52
2022/08/21 07:56:04;;;;;;;8.80;2.17;;;;;;;22.86;69.32;100724.66;8283467;28;20277;-50
2022/08/21 08:00:08;;;;;;;4.78;2.05;;;;;;;22.65;70.22;100727.66;8286616;28;20046;-52
2022/08/21 08:04:08;;;;;;;5.35;2.10;;;;;;;22.55;70.44;100735.50;8284923;28;20120;-53
2022/08/21 08:08:09;;;;;;;6.03;1.63;;;;;;;22.64;69.39;100714.94;8285075;28;20045;-50
2022/08/21 08:12:09;;;;;;;8.88;1.83;;;;;;;22.84;68.93;100704.69;8281856;28;20038;-48
2022/08/21 08:16:10;;;;;;;6.32;1.77;;;;;;;22.64;67.06;100703.03;8283561;28;20088;-47
2022/08/21 08:20:13;;;;;;;13.15;2.42;;;;;;;23.18;66.64;100709.09;8284386;28;20042;-49
2022/08/21 08:24:13;;;;;;;8.93;1.60;;;;;;;24.04;64.00;100702.09;8285054;28;20041;-55
2022/08/21 08:28:13;;;;;;;8.15;1.75;;;;;;;24.18;62.16;100706.47;8285562;28;20033;-49
2022/08/21 08:32:14;;;;;;;6.10;1.70;;;;;;;24.37;62.66;100697.16;8285476;28;20042;-49
2022/08/21 08:36:17;;;;;;;8.93;2.00;;;;;;;24.69;61.23;100701.56;8284206;28;20046;-48
2022/08/21 08:40:43;;;;;;;6.72;1.40;;;;;;;25.03;60.22;100703.75;8286036;28;20137;-48
2022/08/21 08:44:45;;;;;;;6.45;1.65;;;;;;;25.20;59.20;100699.31;8280886;28;20050;-50
2022/08/21 08:48:52;;;;;;;8.13;1.67;;;;;;;25.07;59.93;100693.94;8274820;28;20050;-49
2022/08/21 08:52:59;;;;;;;7.53;1.60;;;;;;;25.33;58.67;100693.63;8283747;28;20662;-49
2022/08/21 08:57:01;;;;;;;5.43;1.13;;;;;;;25.53;58.09;100688.69;8285012;28;20034;-49
2022/08/21 09:01:07;;;;;;;5.43;1.23;;;;;;;25.06;58.25;100685.88;8285561;28;20080;-51
2022/08/21 09:05:12;;;;;;;4.72;1.20;;;;;;;25.41;59.07;100684.16;8290757;28;20048;-49
2022/08/21 09:14:24;;;;;;;6.32;1.45;;;;;;;25.94;57.61;100690.66;8300422;28;20399;-49
2022/08/21 09:23:17;;;;;;;7.00;1.67;;;;;;;25.65;58.06;100669.38;8392064;27;20390;-51
2022/08/21 09:27:20;;;;;;;7.65;1.73;;;;;;;25.61;57.63;100670.91;8351449;28;20498;-49
2022/08/21 09:31:34;;;;;;;7.50;1.67;;;;;;;26.05;56.54;100671.34;8354650;28;20037;-51
2022/08/21 09:35:37;;;;;;;7.75;1.65;;;;;;;26.55;56.30;100672.59;8384247;27;20038;-48
2022/08/21 09:39:39;;;;;;;4.60;1.10;;;;;;;26.74;55.70;100665.88;8364073;27;20056;-48
2022/08/21 09:43:39;;;;;;;6.45;1.10;;;;;;;27.53;53.45;100680.97;8373252;28;20082;-51
2022/08/21 09:47:41;;;;;;;6.70;1.60;;;;;;;27.91;51.49;100670.06;8356650;28;20033;-52
2022/08/21 09:51:52;;;;;;;7.97;1.80;;;;;;;30.09;49.69;100661.56;8344536;28;20575;-51
2022/08/21 10:00:25;;;;;;;5.38;1.50;;;;;;;32.67;43.53;100665.28;8354975;28;20036;-51
2022/08/21 10:04:30;;;;;;;4.30;1.30;;;;;;;32.03;45.29;100664.97;8352516;27;20036;-49
2022/08/21 10:08:33;;;;;;;3.53;1.02;;;;;;;33.01;43.51;100664.41;8360415;27;20036;-49
2022/08/21 10:13:13;;;;;;;3.15;1.25;;;;;;;33.22;43.38;100660.44;8367631;27;20032;-50
2022/08/21 10:17:27;;;;;;;4.15;1.05;;;;;;;33.84;42.27;100649.47;8356568;28;20063;-50
2022/08/21 10:21:35;;;;;;;4.95;1.20;;;;;;;33.03;43.24;100650.97;8352051;28;20450;-50
2022/08/21 10:25:47;;;;;;;2.90;1.05;;;;;;;31.74;44.79;100636.63;8354593;28;20045;-52
2022/08/21 10:34:28;;;;;;;3.88;1.10;;;;;;;30.76;46.27;100627.53;8330390;27;20397;-49
2022/08/21 10:39:08;;;;;;;4.05;0.98;;;;;;;30.76;46.09;100621.97;8318651;28;20041;-50
2022/08/21 10:43:28;;;;;;;4.78;1.40;;;;;;;33.13;43.07;100628.50;8338464;28;20554;-51
2022/08/21 10:47:35;;;;;;;3.58;1.00;;;;;;;33.58;42.65;100630.28;8309867;28;20049;-54
2022/08/21 10:51:44;;;;;;;3.08;1.17;;;;;;;32.99;42.63;100621.00;8309435;28;20041;-54
2022/08/21 10:55:59;;;;;;;5.32;1.63;;;;;;;32.06;42.88;100611.25;8310413;28;20044;-53
2022/08/21 11:00:11;;;;;;;5.63;1.30;;;;;;;33.18;41.99;100617.25;8304246;28;20522;-50
2022/08/21 11:04:19;;;;;;;5.00;1.35;;;;;;;32.37;43.33;100620.50;8306098;28;20038;-50
2022/08/21 11:08:30;;;;;;;4.80;1.60;;;;;;;32.69;42.67;100616.25;8310034;28;20041;-52
2022/08/21 11:13:10;;;;;;;4.00;0.95;;;;;;;33.96;41.89;100615.47;8310037;28;20541;-53
2022/08/21 11:17:13;;;;;;;7.00;1.77;;;;;;;34.01;41.14;100612.63;8296920;28;20084;-49
2022/08/21 11:21:30;;;;;;;8.13;1.42;;;;;;;34.29;41.12;100602.56;8302430;28;20069;-48
2022/08/21 11:25:44;;;;;;;5.53;1.30;;;;;;;33.22;41.63;100604.38;8314801;28;20069;-47
2022/08/21 11:29:49;;;;;;;4.82;1.60;;;;;;;32.56;42.85;100594.44;8305856;28;20068;-50
2022/08/21 11:38:35;;;;;;;5.82;1.40;;;;;;;35.30;40.41;100591.91;8392158;27;20404;-48
2022/08/21 11:42:50;;;;;;;7.60;1.38;;;;;;;35.50;38.45;100591.69;8352049;28;20041;-48
2022/08/21 11:47:23;;;;;;;8.93;1.88;;;;;;;32.72;41.17;100592.47;8358254;28;20095;-51
2022/08/21 11:51:36;;;;;;;4.22;1.25;;;;;;;32.74;41.81;100591.03;8357855;28;20406;-51
2022/08/21 11:56:00;;;;;;;4.40;1.38;;;;;;;33.61;41.64;100594.06;8371667;28;20036;-49
2022/08/21 12:00:08;;;;;;;6.40;1.38;;;;;;;29.91;46.01;100597.78;8372947;28;20094;-51
2022/08/21 12:04:32;;;;;;;6.53;1.15;;;;;;;30.03;46.86;100589.25;8380777;28;20041;-54
2022/08/21 12:08:37;;;;;;;4.15;1.55;;;;;;;29.09;48.68;100576.78;8365965;28;20071;-50
2022/08/21 12:12:41;;;;;;;8.27;1.60;;;;;;;30.02;47.98;100577.25;8367490;28;20043;-52
2022/08/21 12:16:44;;;;;;;9.30;1.40;;;;;;;28.97;49.20;100581.63;8370927;28;20449;-53
2022/08/21 12:21:18;;;;;;;6.25;1.30;;;;;;;28.15;49.38;100563.16;8373378;28;20045;-52
2022/08/21 12:25:20;;;;;;;8.75;1.40;;;;;;;27.42;50.80;100559.63;8361639;28;20140;-53
2022/08/21 12:29:25;;;;;;;6.97;1.23;;;;;;;28.62;50.31;100564.47;8381775;28;20099;-54
2022/08/21 12:33:32;;;;;;;8.38;1.80;;;;;;;28.36;48.94;100559.59;8379137;28;21382;-51
2022/08/21 12:41:53;;;;;;;4.45;1.45;;;;;;;27.88;50.58;100559.38;8328593;27;20406;-52
2022/08/21 12:45:53;;;;;;;8.40;1.42;;;;;;;26.98;51.55;100561.22;8330712;28;20506;-51
2022/08/21 12:50:14;;;;;;;5.05;1.63;;;;;;;27.95;51.41;100569.25;8335758;28;20444;-52
2022/08/21 12:54:24;;;;;;;11.75;1.70;;;;;;;27.53;51.57;100565.13;8333859;28;20037;-52
2022/08/21 12:58:25;;;;;;;7.25;2.08;;;;;;;27.65;50.35;100567.81;8336522;28;20061;-53
2022/08/21 13:02:31;;;;;;;7.00;1.35;;;;;;;27.20;50.83;100565.00;8338065;28;20060;-53
2022/08/21 13:06:38;;;;;;;5.57;0.95;;;;;;;28.08;51.03;100562.47;8337340;28;20138;-52
2022/08/21 13:10:40;;;;;;;8.30;1.60;;;;;;;28.14;50.35;100567.88;8337480;28;20102;-50
2022/08/21 13:14:43;;;;;;;8.23;1.67;;;;;;;27.85;49.97;100563.47;8337973;28;20072;-53
2022/08/21 13:18:55;;;;;;;9.20;1.40;;;;;;;27.89;50.30;100563.84;8333212;28;20065;-50
2022/08/21 13:22:57;;;;;;;4.13;1.40;;;;;;;27.18;50.45;100553.31;8317616;28;20049;-49
2022/08/21 13:26:58;;;;;;;4.22;1.42;;;;;;;27.61;49.86;100561.09;8330234;28;20063;-52
2022/08/21 13:31:01;;;;;;;6.85;1.50;;;;;;;26.87;50.75;100555.72;8334760;28;20041;-51
2022/08/21 13:35:25;;;;;;;5.85;1.50;;;;;;;27.23;49.87;100553.38;8311613;28;20042;-50
2022/08/21 13:39:26;;;;;;;4.22;1.48;;;;;;;27.72;50.26;100554.63;8334609;28;20531;-49
2022/08/21 13:43:33;;;;;;;8.00;1.50;;;;;;;27.42;50.92;100542.97;8310158;28;20278;-53
2022/08/21 13:47:33;;;;;;;5.38;1.80;;;;;;;26.79;50.34;100549.47;8324584;28;20084;-51
2022/08/21 13:51:35;;;;;;;5.18;1.20;;;;;;;26.90;50.99;100549.66;8325705;28;20099;-52
2022/08/21 13:55:41;;;;;;;6.40;1.30;;;;;;;27.05;50.46;100539.72;8315817;28;20052;-52
2022/08/21 13:59:41;;;;;;;4.03;1.15;;;;;;;27.29;50.85;100546.06;8301651;28;20446;-51
2022/08/21 14:03:48;;;;;;;6.25;1.05;;;;;;;27.87;49.19;100532.69;8293520;28;20088;-47
2022/08/21 14:07:50;;;;;;;6.93;1.30;;;;;;;26.98;50.16;100546.50;8291820;28;20038;-47
2022/08/21 14:11:53;;;;;;;14.48;1.58;;;;;;;27.47;50.33;100548.63;8297704;28;20037;-48
2022/08/21 14:15:58;;;;;;;6.38;1.27;;;;;;;26.73;50.57;100547.66;8298458;28;20426;-47
2022/08/21 14:19:58;;;;;;;5.93;1.30;;;;;;;26.47;51.01;100536.22;8293604;28;20054;-47
2022/08/21 14:24:03;;;;;;;3.58;0.85;;;;;;;26.48;50.75;100536.00;8302364;28;20117;-47
2022/08/21 14:32:25;;;;;;;5.93;0.85;;;;;;;26.49;49.56;100534.88;8315250;27;20388;-48
2022/08/21 14:36:25;;;;;;;4.93;0.98;;;;;;;26.84;50.49;100535.66;8295993;28;20068;-48
2022/08/21 14:40:26;;;;;;;4.07;0.82;;;;;;;26.74;50.30;100532.69;8293906;28;20558;-48
2022/08/21 14:44:27;;;;;;;3.20;1.08;;;;;;;26.36;50.66;100524.06;8305029;28;20119;-50
2022/08/21 14:48:27;;;;;;;2.25;1.08;;;;;;;26.45;50.94;100530.06;8299631;28;20037;-48
2022/08/21 14:52:27;;;;;;;4.75;1.35;;;;;;;26.32;51.17;100527.56;8297056;28;20034;-48
2022/08/21 14:56:28;;;;;;;3.35;1.00;;;;;;;26.30;52.36;100536.13;8297411;28;20120;-48
2022/08/21 15:00:28;;;;;;;7.82;1.00;;;;;;;26.13;52.06;100535.16;8304932;28;20037;-50
2022/08/21 15:04:29;;;;;;;4.33;1.23;;;;;;;26.04;51.96;100535.78;8293019;28;20033;-49
2022/08/21 15:08:29;;;;;;;4.70;1.20;;;;;;;26.22;51.85;100530.94;8294140;28;20302;-48
2022/08/21 15:12:30;;;;;;;4.40;1.00;;;;;;;26.74;52.04;100531.84;8278992;28;20125;-48
2022/08/21 15:16:31;;;;;;;5.43;1.17;;;;;;;27.28;50.38;100538.78;8284763;28;20038;-51
2022/08/21 15:20:31;;;;;;;2.75;0.80;;;;;;;27.04;49.10;100528.88;8285007;28;20134;-49
2022/08/21 15:24:32;;;;;;;6.80;1.00;;;;;;;27.21;49.40;100527.81;8300837;28;20049;-51
2022/08/21 15:28:34;;;;;;;4.32;0.85;;;;;;;26.71;48.71;100521.22;8285037;28;20058;-49
2022/08/21 15:32:34;;;;;;;4.50;1.10;;;;;;;26.33;49.50;100519.00;8294948;28;20264;-52
2022/08/21 15:36:35;;;;;;;3.47;1.33;;;;;;;26.21;49.49;100509.84;8282572;28;20210;-51
2022/08/21 15:40:38;;;;;;;4.97;0.98;;;;;;;26.63;48.89;100516.09;8285241;28;20305;-49
2022/08/21 15:44:40;;;;;;;4.90;0.95;;;;;;;26.69;48.13;100512.34;8276868;28;20045;-52
2022/08/21 15:48:40;;;;;;;2.05;0.75;;;;;;;26.54;47.63;100518.38;8288706;28;20073;-48
2022/08/21 15:52:41;;;;;;;5.47;1.08;;;;;;;26.78;47.73;100516.41;8275548;28;20361;-51
2022/08/21 15:56:47;;;;;;;8.82;4.50;;;;;;;26.47;48.27;100509.31;8268574;28;20420;-51
2022/08/21 16:00:47;;;;;;;4.63;1.25;;;;;;;26.71;48.02;100510.13;8271356;28;20530;-49
2022/08/21 16:04:48;;;;;;;1.98;0.82;;;;;;;26.63;47.96;100508.59;8262016;28;20407;-51
2022/08/21 16:08:48;;;;;;;4.13;1.23;;;;;;;26.66;48.11;100513.66;8258217;28;20423;-49
2022/08/21 16:12:52;;;;;;;3.03;0.90;;;;;;;26.54;47.94;100503.66;8263736;28;20117;-51
2022/08/21 16:16:53;;;;;;;2.63;1.13;;;;;;;26.46;47.61;100512.34;8265578;28;20806;-49
2022/08/21 16:20:53;;;;;;;4.60;0.90;;;;;;;26.37;48.05;100513.78;8267897;28;20472;-49
2022/08/21 16:24:54;;;;;;;3.63;0.82;;;;;;;26.22;49.12;100519.00;8264407;28;20076;-48
2022/08/21 16:28:58;;;;;;;5.27;1.43;;;;;;;26.14;49.99;100514.66;8272180;28;20054;-50
2022/08/21 16:33:01;;;;;;;4.07;1.10;;;;;;;26.13;50.06;100512.97;8276823;28;20295;-49
2022/08/21 16:37:03;;;;;;;4.60;0.87;;;;;;;26.03;50.57;100515.53;8277597;28;20048;-50
2022/08/21 16:41:07;;;;;;;3.15;0.80;;;;;;;25.90;49.86;100512.09;8263990;28;20484;-53
2022/08/21 16:45:11;;;;;;;6.13;1.08;;;;;;;25.80;49.77;100512.69;8268008;28;20041;-51
2022/08/21 16:49:12;;;;;;;;;;;;;;;25.80;50.56;100507.16;8277949;28;20030;-53
2022/08/21 16:53:13;;;;;;;3.20;0.90;;;;;;;25.76;50.46;100511.50;8265636;28;19921;-51
2022/08/21 16:57:13;;;;;;;3.58;1.00;;;;;;;25.86;51.60;100508.97;8280931;28;20393;-51
2022/08/21 17:01:18;;;;;;;2.00;1.00;;;;;;;25.83;51.33;100505.84;8285911;28;20088;-53
2022/08/21 17:05:19;;;;;;;6.18;1.40;;;;;;;25.81;52.29;100503.31;8267684;28;20037;-53
2022/08/21 17:09:19;;;;;;;5.90;1.10;;;;;;;25.68;52.87;100509.06;8264903;28;20061;-53
2022/08/21 17:13:20;;;;;;;3.17;0.93;;;;;;;25.43;53.95;100507.59;8266934;28;20101;-50
2022/08/21 17:17:20;;;;;;;4.50;1.40;;;;;;;25.23;54.46;100502.31;8270582;28;20054;-53
2022/08/21 17:21:21;;;;;;;2.83;1.08;;;;;;;25.09;54.90;100498.06;8270406;28;20119;-54
2022/08/21 17:25:22;;;;;;;6.05;1.40;;;;;;;24.95;55.18;100505.69;8265172;28;20061;-53
2022/08/21 17:29:29;;;;;;;6.50;1.40;;;;;;;24.84;55.65;100511.19;8276263;28;20050;-54
2022/08/21 17:33:37;;;;;;;5.07;1.10;;;;;;;24.71;55.83;100522.44;8264976;28;20066;-53
2022/08/21 17:37:38;;;;;;;2.60;1.20;;;;;;;24.71;55.82;100516.91;8268534;28;20408;-53
2022/08/21 17:41:39;;;;;;;6.18;1.40;;;;;;;24.64;56.06;100516.13;8272771;28;20121;-53
2022/08/21 17:45:42;;;;;;;5.60;1.08;;;;;;;24.58;56.26;100525.34;8278794;28;20046;-52
2022/08/21 17:49:43;;;;;;;7.30;1.10;;;;;;;24.51;56.23;100527.31;8273582;28;20042;-51
2022/08/21 17:53:43;;;;;;;3.95;1.17;;;;;;;24.46;56.06;100529.94;8271333;28;20072;-51
2022/08/21 17:57:46;;;;;;;6.50;1.02;;;;;;;24.41;56.32;100527.88;8267366;28;20077;-47
2022/08/21 18:01:46;;;;;;;5.28;1.02;;;;;;;24.37;56.46;100525.78;8270302;28;20038;-48
2022/08/21 18:05:50;;;;;;;7.13;1.40;;;;;;;24.31;56.52;100527.53;8269432;28;20056;-50
2022/08/21 18:09:50;;;;;;;4.63;0.80;;;;;;;24.23;56.86;100525.09;8258675;28;20084;-48
2022/08/21 18:13:53;;;;;;;5.20;1.20;;;;;;;24.14;56.77;100526.47;8279502;28;20038;-48
2022/08/21 18:17:53;;;;;;;4.25;1.30;;;;;;;24.06;57.32;100529.50;8276217;28;20049;-49
2022/08/21 18:21:55;;;;;;;7.88;1.27;;;;;;;23.99;58.00;100528.72;8285886;28;20048;-50
2022/08/21 18:25:57;;;;;;;4.60;0.90;;;;;;;23.90;58.20;100540.25;8266228;28;20034;-50
2022/08/21 18:29:59;;;;;;;3.95;1.17;;;;;;;23.76;58.33;100541.44;8280768;28;20098;-52
2022/08/21 18:34:04;;;;;;;8.05;1.00;;;;;;;23.71;58.46;100535.75;8278403;28;20058;-52
2022/08/21 18:38:05;;;;;;;4.60;1.20;;;;;;;23.64;58.87;100540.47;8269493;28;20042;-52
2022/08/21 18:42:10;;;;;;;21.33;13.65;;;;;;;23.24;61.51;100550.97;8277190;28;20123;-50
2022/08/21 18:46:11;;;;;;;8.13;3.10;;;;;;;23.19;61.56;100543.31;8282267;28;20069;-52
2022/08/21 18:50:13;;;;;;;11.55;2.15;;;;;;;23.17;61.30;100539.94;8267719;28;20042;-51
2022/08/21 18:54:13;;;;;;;5.60;1.60;;;;;;;22.85;63.80;100548.38;8273253;28;20762;-52
2022/08/21 18:58:14;;;;;;;4.45;1.63;;;;;;;22.87;62.41;100544.34;8277186;28;20058;-51
2022/08/21 19:02:15;;;;;;;4.63;1.30;;;;;;;22.96;62.13;100558.72;8294552;28;20049;-51
2022/08/21 19:06:15;;;;;;;3.88;0.90;;;;;;;22.90;61.94;100563.19;8270923;28;20038;-52
2022/08/21 19:10:18;;;;;;;5.68;1.23;;;;;;;22.89;62.22;100556.00;8275770;28;20057;-51
2022/08/21 19:14:18;;;;;;;8.93;1.30;;;;;;;22.79;63.13;100561.16;8277600;28;20065;-50